createdAt,value
2019-02-24T00:01:47.273Z,20.40
2019-02-24T00:04:16.178Z,15.57
2019-02-24T00:06:44.655Z,19.13
2019-02-24T00:09:13.771Z,17.90
2019-02-24T00:11:42.325Z,15.67
2019-02-24T00:14:10.940Z,13.87
2019-02-24T00:16:39.568Z,19.03
2019-02-24T00:19:47.920Z,18.93
2019-02-24T00:22:16.484Z,15.40
2019-02-24T00:24:45.168Z,21.17
2019-02-24T00:27:13.728Z,17.17
2019-02-24T00:29:42.314Z,11.43
2019-02-24T00:32:10.866Z,16.47
2019-02-24T00:34:39.446Z,15.87
2019-02-24T00:37:08.187Z,16.30
2019-02-24T00:39:36.744Z,14.30
2019-02-24T00:42:05.299Z,11.23
2019-02-24T00:44:34.043Z,14.20
2019-02-24T00:47:02.524Z,16.30
2019-02-24T00:49:31.464Z,17.90
2019-02-24T00:52:00.187Z,15.53
2019-02-24T00:54:28.938Z,16.83
2019-02-24T00:56:57.565Z,19.93
2019-02-24T00:59:26.141Z,14.50
2019-02-24T01:01:54.710Z,14.30
2019-02-24T01:04:23.292Z,19.80
2019-02-24T01:06:51.839Z,13.83
2019-02-24T01:09:20.423Z,11.47
2019-02-24T01:11:48.979Z,12.23
2019-02-24T01:14:18.105Z,11.97
2019-02-24T01:16:47.147Z,13.60
2019-02-24T01:19:15.652Z,11.53
2019-02-24T01:21:44.217Z,10.83
2019-02-24T01:24:12.799Z,12.20
2019-02-24T01:26:41.390Z,12.13
2019-02-24T01:29:10.038Z,11.87
2019-02-24T01:31:38.595Z,14.50
2019-02-24T01:34:07.267Z,14.23
2019-02-24T01:36:35.957Z,9.10
2019-02-24T01:39:05.824Z,14.50
2019-02-24T01:41:34.381Z,12.10
2019-02-24T01:44:03.148Z,15.97
2019-02-24T01:46:31.701Z,16.10
2019-02-24T01:49:00.282Z,11.17
2019-02-24T01:51:28.859Z,14.47
2019-02-24T01:53:57.647Z,12.50
2019-02-24T01:56:26.244Z,15.53
2019-02-24T01:58:55.171Z,10.77
2019-02-24T02:01:23.936Z,18.70
2019-02-24T02:03:52.524Z,10.50
2019-02-24T02:06:21.081Z,12.93
2019-02-24T02:08:49.636Z,13.60
2019-02-24T02:11:18.671Z,18.00
2019-02-24T02:13:47.400Z,15.07
2019-02-24T02:16:16.178Z,17.30
2019-02-24T02:18:44.727Z,16.20
2019-02-24T02:21:13.243Z,11.07
2019-02-24T02:23:41.811Z,14.40
2019-02-24T02:26:10.377Z,16.13
2019-02-24T02:28:44.052Z,18.23
2019-02-24T02:31:09.164Z,14.60
2019-02-24T02:33:37.724Z,13.67
2019-02-24T02:36:06.299Z,15.10
2019-02-24T02:38:34.935Z,12.03
2019-02-24T02:41:03.605Z,14.13
2019-02-24T02:43:32.164Z,16.53
2019-02-24T02:46:00.840Z,16.20
2019-02-24T02:48:29.872Z,17.07
2019-02-24T02:50:59.309Z,11.80
2019-02-24T02:53:27.856Z,22.83
2019-02-24T02:55:56.548Z,12.47
2019-02-24T02:58:25.189Z,15.57
2019-02-24T03:00:53.926Z,14.97
2019-02-24T03:03:22.476Z,21.70
2019-02-24T03:05:55.732Z,17.07
2019-02-24T03:08:25.928Z,12.68
2019-02-24T03:10:54.941Z,12.73
2019-02-24T03:13:23.500Z,12.43
2019-02-24T03:15:52.076Z,16.37
2019-02-24T03:18:20.878Z,19.63
2019-02-24T03:20:49.744Z,14.20
2019-02-24T03:23:18.317Z,17.90
2019-02-24T03:25:46.910Z,15.95
2019-02-24T03:28:15.536Z,16.53
2019-02-24T03:30:44.060Z,14.30
2019-02-24T03:33:12.616Z,17.10
2019-02-24T03:35:41.223Z,18.13
2019-02-24T03:38:09.847Z,16.67
2019-02-24T03:40:38.428Z,17.50
2019-02-24T03:43:07.205Z,17.37
2019-02-24T03:45:35.787Z,17.30
2019-02-24T03:48:04.462Z,17.90
2019-02-24T03:50:33.009Z,20.10
2019-02-24T03:53:01.647Z,14.33
2019-02-24T03:55:30.332Z,17.70
2019-02-24T03:57:58.982Z,17.57
2019-02-24T04:00:27.635Z,11.78
2019-02-24T04:02:56.339Z,18.40
2019-02-24T04:05:24.959Z,21.07
2019-02-24T04:07:53.554Z,13.67
2019-02-24T04:10:22.108Z,17.17
2019-02-24T04:12:50.759Z,13.47
2019-02-24T04:15:19.379Z,16.13
2019-02-24T04:17:47.967Z,20.32
2019-02-24T04:20:16.548Z,22.70
2019-02-24T04:22:45.119Z,14.73
2019-02-24T04:25:13.757Z,18.97
2019-02-24T04:27:42.333Z,17.63
2019-02-24T04:30:11.181Z,17.60
2019-02-24T04:32:39.751Z,19.50
2019-02-24T04:35:08.440Z,13.43
2019-02-24T04:37:37.027Z,15.97
2019-02-24T04:40:07.770Z,17.23
2019-02-24T04:42:36.352Z,18.80
2019-02-24T04:45:06.059Z,14.70
2019-02-24T04:47:34.630Z,17.23
2019-02-24T04:50:03.751Z,16.67
2019-02-24T04:52:32.344Z,13.00
2019-02-24T04:55:00.904Z,15.50
2019-02-24T04:57:29.500Z,15.07
2019-02-24T04:59:58.051Z,18.70
2019-02-24T05:02:26.628Z,14.60
2019-02-24T05:04:55.192Z,18.02
2019-02-24T05:07:23.927Z,13.48
2019-02-24T05:09:52.487Z,14.53
2019-02-24T05:12:21.148Z,16.03
2019-02-24T05:14:49.732Z,17.47
2019-02-24T05:17:18.348Z,20.63
2019-02-24T05:19:46.871Z,17.10
2019-02-24T05:22:15.529Z,22.70
2019-02-24T05:24:44.089Z,13.50
2019-02-24T05:27:12.669Z,9.35
2019-02-24T05:29:45.962Z,16.67
2019-02-24T05:32:11.475Z,14.77
2019-02-24T05:34:40.035Z,13.93
2019-02-24T05:37:08.613Z,14.80
2019-02-24T05:39:37.194Z,16.52
2019-02-24T05:42:05.675Z,17.67
2019-02-24T05:44:34.258Z,12.80
2019-02-24T05:47:02.819Z,19.97
2019-02-24T05:49:31.648Z,16.37
2019-02-24T05:52:00.224Z,10.63
2019-02-24T05:54:28.842Z,15.95
2019-02-24T05:56:57.509Z,15.68
2019-02-24T05:59:26.076Z,18.30
2019-02-24T06:01:54.639Z,17.75
2019-02-24T06:04:23.228Z,18.82
2019-02-24T06:06:51.793Z,19.57
2019-02-24T06:09:20.381Z,15.83
2019-02-24T06:11:48.944Z,19.27
2019-02-24T06:14:17.526Z,18.53
2019-02-24T06:16:46.097Z,17.00
2019-02-24T06:19:14.683Z,23.00
2019-02-24T06:21:43.247Z,18.60
2019-02-24T06:24:11.832Z,11.85
2019-02-24T06:26:40.383Z,13.13
2019-02-24T06:29:08.986Z,13.80
2019-02-24T06:31:37.537Z,13.73
2019-02-24T06:34:06.127Z,14.30
2019-02-24T06:36:34.675Z,17.80
2019-02-24T06:39:04.127Z,13.80
2019-02-24T06:41:32.691Z,17.37
2019-02-24T06:44:01.276Z,14.07
2019-02-24T06:46:29.831Z,11.17
2019-02-24T06:48:58.411Z,12.33
2019-02-24T06:51:26.964Z,13.07
2019-02-24T06:53:55.542Z,16.57
2019-02-24T06:56:24.039Z,15.07
2019-02-24T06:58:52.615Z,14.17
2019-02-24T07:01:21.245Z,16.43
2019-02-24T07:03:49.811Z,8.60
2019-02-24T07:06:18.363Z,13.67
2019-02-24T07:08:46.939Z,12.80
2019-02-24T07:11:15.498Z,12.63
2019-02-24T07:13:44.077Z,12.23
2019-02-24T07:16:12.631Z,10.10
2019-02-24T07:18:41.200Z,12.47
2019-02-24T07:21:09.774Z,12.03
2019-02-24T07:23:38.319Z,14.13
2019-02-24T07:26:06.896Z,15.07
2019-02-24T07:28:35.456Z,17.13
2019-02-24T07:31:04.037Z,13.17
2019-02-24T07:33:32.613Z,17.20
2019-02-24T07:36:01.159Z,11.17
2019-02-24T07:38:29.716Z,16.47
2019-02-24T07:40:58.283Z,15.57
2019-02-24T07:43:26.832Z,9.13
2019-02-24T07:45:55.411Z,16.70
2019-02-24T07:48:23.956Z,13.60
2019-02-24T07:50:52.536Z,10.63
2019-02-24T07:53:21.097Z,16.67
2019-02-24T07:55:49.665Z,12.80
2019-02-24T07:58:18.219Z,17.53
2019-02-24T08:00:46.800Z,14.77
2019-02-24T08:03:15.341Z,13.40
2019-02-24T08:05:43.920Z,15.67
2019-02-24T08:08:16.407Z,12.53
2019-02-24T08:10:42.776Z,14.83
2019-02-24T08:13:11.335Z,13.97
2019-02-24T08:15:39.916Z,13.77
2019-02-24T08:18:08.474Z,10.63
2019-02-24T08:20:37.043Z,15.60
2019-02-24T08:23:05.672Z,13.03
2019-02-24T08:25:34.245Z,16.53
2019-02-24T08:28:02.806Z,13.03
2019-02-24T08:30:31.383Z,15.40
2019-02-24T08:32:59.936Z,15.07
2019-02-24T08:35:28.525Z,12.80
2019-02-24T08:37:57.076Z,14.80
2019-02-24T08:40:25.648Z,14.33
2019-02-24T08:42:54.207Z,11.30
2019-02-24T08:45:22.781Z,16.13
2019-02-24T08:47:51.331Z,13.70
2019-02-24T08:50:20.064Z,13.47
2019-02-24T08:52:48.611Z,14.03
2019-02-24T08:55:17.159Z,15.30
2019-02-24T08:57:45.740Z,13.07
2019-02-24T09:00:15.652Z,13.47
2019-02-24T09:02:44.228Z,13.77
2019-02-24T09:05:12.776Z,14.60
2019-02-24T09:07:41.347Z,17.73
2019-02-24T09:10:09.972Z,14.00
2019-02-24T09:12:38.543Z,11.27
2019-02-24T09:15:11.969Z,12.23
2019-02-24T09:17:40.545Z,12.40
2019-02-24T09:20:11.147Z,13.97
2019-02-24T09:22:39.799Z,13.90
2019-02-24T09:25:08.821Z,13.40
2019-02-24T09:27:37.464Z,17.10
2019-02-24T09:30:11.555Z,13.40
2019-02-24T09:32:40.131Z,16.73
2019-02-24T09:35:09.622Z,15.37
2019-02-24T09:37:38.267Z,11.37
2019-02-24T09:40:12.110Z,14.33
2019-02-24T09:42:40.687Z,14.50
2019-02-24T09:45:11.843Z,14.43
2019-02-24T09:47:46.881Z,11.60
2019-02-24T09:50:10.980Z,12.90
2019-02-24T09:52:39.553Z,15.00
2019-02-24T09:55:09.656Z,11.73
2019-02-24T09:57:38.216Z,13.30
2019-02-24T10:00:12.262Z,18.67
2019-02-24T10:02:40.834Z,15.93
2019-02-24T10:05:10.016Z,19.00
2019-02-24T10:07:38.605Z,13.57
2019-02-24T10:10:09.895Z,12.20
2019-02-24T10:12:38.467Z,23.73
2019-02-24T10:15:10.266Z,14.60
2019-02-24T10:17:38.837Z,18.10
2019-02-24T10:20:09.827Z,15.90
2019-02-24T10:22:38.399Z,15.70
2019-02-24T10:25:08.697Z,11.67
2019-02-24T10:27:37.343Z,18.07
2019-02-24T10:30:13.271Z,13.87
2019-02-24T10:32:41.866Z,14.63
2019-02-24T10:35:10.479Z,10.73
2019-02-24T10:37:39.030Z,15.97
2019-02-24T10:40:17.445Z,10.30
2019-02-24T10:42:46.283Z,13.33
2019-02-24T10:45:16.624Z,12.10
2019-02-24T10:47:45.185Z,13.67
2019-02-24T10:50:15.338Z,14.77
2019-02-24T10:52:43.905Z,17.20
2019-02-24T10:55:12.625Z,14.03
2019-02-24T10:57:41.171Z,14.53
2019-02-24T11:00:12.819Z,16.73
2019-02-24T11:02:41.442Z,12.50
2019-02-24T11:05:10.076Z,12.07
2019-02-24T11:07:38.627Z,14.00
2019-02-24T11:10:08.971Z,15.23
2019-02-24T11:12:37.591Z,14.00
2019-02-24T11:15:08.211Z,15.70
2019-02-24T11:17:36.895Z,11.50
2019-02-24T11:20:18.760Z,15.13
2019-02-24T11:22:47.311Z,16.57
2019-02-24T11:25:16.082Z,14.03
2019-02-24T11:27:44.631Z,10.23
2019-02-24T11:30:14.802Z,13.83
2019-02-24T11:32:43.576Z,11.77
2019-02-24T11:35:13.109Z,11.67
2019-02-24T11:37:41.808Z,13.17
2019-02-24T11:40:17.961Z,14.80
2019-02-24T11:42:46.563Z,11.43
2019-02-24T11:45:15.199Z,13.90
2019-02-24T11:47:43.749Z,13.60
2019-02-24T11:50:13.097Z,12.07
2019-02-24T11:52:41.680Z,10.90
2019-02-24T11:55:10.849Z,10.63
2019-02-24T11:57:39.659Z,8.73
2019-02-24T12:00:11.109Z,13.40
2019-02-24T12:02:41.621Z,8.70
2019-02-24T12:05:10.562Z,12.93
2019-02-24T12:07:39.287Z,13.27
2019-02-24T12:10:10.099Z,11.67
2019-02-24T12:12:38.820Z,11.83
2019-02-24T12:15:10.425Z,10.80
2019-02-24T12:17:38.978Z,11.67
2019-02-24T12:20:11.848Z,13.03
2019-02-24T12:22:40.475Z,10.37
2019-02-24T12:25:10.383Z,9.90
2019-02-24T12:27:38.951Z,9.33
2019-02-24T12:30:10.600Z,12.47
2019-02-24T12:32:39.143Z,12.20
2019-02-24T12:35:07.783Z,12.03
2019-02-24T12:37:36.340Z,10.73
2019-02-24T12:40:09.962Z,9.00
2019-02-24T12:42:38.593Z,14.17
2019-02-24T12:45:11.165Z,9.20
2019-02-24T12:47:39.800Z,9.63
2019-02-24T12:50:12.743Z,11.30
2019-02-24T12:52:41.365Z,11.20
2019-02-24T12:55:10.366Z,8.80
2019-02-24T12:57:58.252Z,11.10
2019-02-24T13:00:47.689Z,10.23
2019-02-24T13:03:23.798Z,11.80
2019-02-24T13:05:46.589Z,8.97
2019-02-24T13:08:15.148Z,11.57
2019-02-24T13:10:43.792Z,11.10
2019-02-24T13:13:12.345Z,11.00
2019-02-24T13:15:41.136Z,10.63
2019-02-24T13:18:09.761Z,14.23
2019-02-24T13:20:38.348Z,12.00
2019-02-24T13:23:06.963Z,9.70
2019-02-24T13:25:35.536Z,7.20
2019-02-24T13:28:04.152Z,8.83
2019-02-24T13:30:32.736Z,11.60
2019-02-24T13:33:01.280Z,10.73
2019-02-24T13:35:29.923Z,12.97
2019-02-24T13:37:58.470Z,11.27
2019-02-24T13:40:27.043Z,12.53
2019-02-24T13:42:55.596Z,12.23
2019-02-24T13:45:24.174Z,12.13
2019-02-24T13:47:52.727Z,11.60
2019-02-24T13:50:21.439Z,13.60
2019-02-24T13:52:50.057Z,10.03
2019-02-24T13:55:18.708Z,22.60
2019-02-24T13:57:47.259Z,10.43
2019-02-24T14:00:18.327Z,9.73
2019-02-24T14:02:46.884Z,9.63
2019-02-24T14:05:15.431Z,13.83
2019-02-24T14:07:43.995Z,9.93
2019-02-24T14:10:13.793Z,10.67
2019-02-24T14:12:42.434Z,14.30
2019-02-24T14:15:15.192Z,12.37
2019-02-24T14:17:43.823Z,13.67
2019-02-24T14:20:14.121Z,11.83
2019-02-24T14:22:42.699Z,15.53
2019-02-24T14:25:12.187Z,11.27
2019-02-24T14:27:40.903Z,12.67
2019-02-24T14:30:19.072Z,12.40
2019-02-24T14:32:47.655Z,17.13
2019-02-24T14:35:18.505Z,13.57
2019-02-24T14:37:47.076Z,11.90
2019-02-24T14:40:15.701Z,16.97
2019-02-24T14:42:44.281Z,11.27
2019-02-24T14:45:18.097Z,12.27
2019-02-24T14:47:46.657Z,14.03
2019-02-24T14:50:15.350Z,21.93
2019-02-24T14:52:43.963Z,22.50
2019-02-24T14:55:13.651Z,8.47
2019-02-24T14:57:42.223Z,19.20
2019-02-24T15:00:15.912Z,13.53
2019-02-24T15:02:44.486Z,9.77
2019-02-24T15:05:16.860Z,9.07
2019-02-24T15:07:45.647Z,14.23
2019-02-24T15:10:18.808Z,9.10
2019-02-24T15:12:47.379Z,13.17
2019-02-24T15:15:21.523Z,13.23
2019-02-24T15:17:50.102Z,14.03
2019-02-24T15:20:20.085Z,9.80
2019-02-24T15:22:48.660Z,9.90
2019-02-24T15:25:20.251Z,8.80
2019-02-24T15:27:48.824Z,9.57
2019-02-24T15:30:37.900Z,12.90
2019-02-24T15:33:06.608Z,11.23
2019-02-24T15:35:35.160Z,10.27
2019-02-24T15:38:03.803Z,9.00
2019-02-24T15:40:32.353Z,10.10
2019-02-24T15:43:00.931Z,10.80
2019-02-24T15:45:29.553Z,10.10
2019-02-24T15:47:58.124Z,12.43
2019-02-24T15:50:26.672Z,10.00
2019-02-24T15:52:55.254Z,10.47
2019-02-24T15:55:23.808Z,13.73
2019-02-24T15:57:52.380Z,14.50
2019-02-24T16:00:24.640Z,9.27
2019-02-24T16:03:01.167Z,11.00
2019-02-24T16:05:23.483Z,11.97
2019-02-24T16:07:52.042Z,10.63
2019-02-24T16:10:23.812Z,10.20
2019-02-24T16:13:17.063Z,13.43
2019-02-24T16:15:41.919Z,9.73
2019-02-24T16:18:10.487Z,11.60
2019-02-24T16:20:39.475Z,14.47
2019-02-24T16:23:08.117Z,13.07
2019-02-24T16:25:36.663Z,10.43
2019-02-24T16:28:05.241Z,13.67
2019-02-24T16:30:33.837Z,11.70
2019-02-24T16:33:10.189Z,16.93
2019-02-24T16:35:32.575Z,12.87
2019-02-24T16:38:01.140Z,18.97
2019-02-24T16:40:29.767Z,24.57
2019-02-24T16:42:58.332Z,21.17
2019-02-24T16:45:26.953Z,17.07
2019-02-24T16:47:55.531Z,17.73
2019-02-24T16:50:24.821Z,16.40
2019-02-24T16:52:53.468Z,18.43
2019-02-24T16:55:22.016Z,16.10
2019-02-24T16:57:50.671Z,17.17
2019-02-24T17:00:22.517Z,12.70
2019-02-24T17:02:51.159Z,16.17
2019-02-24T17:05:19.846Z,18.30
2019-02-24T17:07:49.285Z,18.63
2019-02-24T17:10:23.191Z,18.60
2019-02-24T17:12:51.835Z,20.60
2019-02-24T17:15:20.444Z,20.10
2019-02-24T17:17:49.071Z,19.17
2019-02-24T17:20:26.530Z,24.50
2019-02-24T17:23:14.371Z,25.07
2019-02-24T17:25:42.927Z,24.47
2019-02-24T17:28:11.496Z,23.73
2019-02-24T17:30:40.049Z,35.27
2019-02-24T17:33:08.641Z,34.03
2019-02-24T17:35:37.559Z,38.50
2019-02-24T17:38:06.182Z,34.30
2019-02-24T17:40:34.774Z,57.23
2019-02-24T17:43:03.330Z,74.37
2019-02-24T17:45:31.914Z,97.80
2019-02-24T17:48:00.599Z,90.07
2019-02-24T17:50:29.195Z,91.50
2019-02-24T17:52:57.787Z,61.03
2019-02-24T17:55:26.321Z,57.13
2019-02-24T17:57:54.875Z,39.40
2019-02-24T18:00:28.938Z,30.70
2019-02-24T18:02:57.756Z,22.93
2019-02-24T18:05:26.339Z,23.17
2019-02-24T18:07:54.888Z,28.50
2019-02-24T18:10:23.533Z,23.57
2019-02-24T18:12:52.142Z,17.33
2019-02-24T18:15:20.720Z,18.30
2019-02-24T18:17:49.634Z,15.87
2019-02-24T18:20:22.192Z,18.67
2019-02-24T18:22:50.810Z,19.83
2019-02-24T18:25:19.400Z,18.37
2019-02-24T18:27:47.994Z,21.47
2019-02-24T18:30:27.865Z,26.60
2019-02-24T18:32:56.449Z,31.87
2019-02-24T18:35:25.031Z,29.30
2019-02-24T18:37:53.600Z,17.47
2019-02-24T18:40:22.174Z,13.30
2019-02-24T18:42:59.317Z,18.13
2019-02-24T18:45:21.021Z,16.90
2019-02-24T18:47:49.916Z,21.80
2019-02-24T18:50:20.187Z,25.10
2019-02-24T18:52:48.884Z,21.20
2019-02-24T18:55:17.538Z,16.77
2019-02-24T18:57:46.100Z,17.00
2019-02-24T19:00:20.935Z,16.83
2019-02-24T19:02:49.488Z,22.60
2019-02-24T19:05:18.152Z,22.27
2019-02-24T19:07:46.767Z,23.87
2019-02-24T19:10:18.420Z,19.80
2019-02-24T19:12:47.248Z,21.07
2019-02-24T19:15:17.484Z,20.47
2019-02-24T19:17:48.217Z,20.53
2019-02-24T19:20:19.520Z,17.53
2019-02-24T19:22:48.258Z,20.17
2019-02-24T19:25:17.075Z,15.43
2019-02-24T19:27:45.631Z,21.63
2019-02-24T19:30:18.028Z,12.60
2019-02-24T19:32:46.594Z,15.53
2019-02-24T19:35:16.408Z,17.73
2019-02-24T19:37:45.099Z,17.07
2019-02-24T19:40:21.087Z,19.43
2019-02-24T19:42:49.882Z,29.13
2019-02-24T19:45:24.005Z,21.77
2019-02-24T19:47:52.769Z,16.20
2019-02-24T19:50:21.514Z,17.40
2019-02-24T19:52:50.060Z,21.47
2019-02-24T19:55:18.875Z,33.53
2019-02-24T19:57:47.531Z,30.40
2019-02-24T20:00:21.294Z,37.20
2019-02-24T20:02:49.923Z,34.87
2019-02-24T20:05:19.323Z,34.53
2019-02-24T20:07:48.273Z,25.43
2019-02-24T20:10:27.617Z,23.00
2019-02-24T20:12:56.175Z,25.63
2019-02-24T20:15:24.766Z,23.00
2019-02-24T20:17:53.322Z,16.80
2019-02-24T20:20:22.172Z,21.73
2019-02-24T20:22:50.752Z,15.47
2019-02-24T20:25:23.403Z,24.17
2019-02-24T20:27:51.951Z,22.57
2019-02-24T20:30:28.172Z,21.37
2019-02-24T20:32:56.800Z,19.37
2019-02-24T20:35:25.466Z,26.47
2019-02-24T20:37:55.834Z,24.07
2019-02-24T20:40:24.476Z,26.60
2019-02-24T20:42:53.052Z,24.70
2019-02-24T20:45:22.754Z,25.33
2019-02-24T20:47:51.394Z,24.47
2019-02-24T20:50:24.853Z,18.37
2019-02-24T20:52:53.636Z,18.63
2019-02-24T20:55:22.252Z,21.30
2019-02-24T20:57:50.910Z,29.30
2019-02-24T21:00:22.479Z,20.10
2019-02-24T21:02:51.068Z,15.83
2019-02-24T21:05:19.828Z,18.67
2019-02-24T21:07:48.411Z,20.57
2019-02-24T21:10:17.107Z,22.90
2019-02-24T21:12:45.776Z,23.20
2019-02-24T21:15:15.863Z,26.17
2019-02-24T21:17:44.616Z,20.13
2019-02-24T21:20:15.980Z,21.13
2019-02-24T21:22:44.650Z,14.90
2019-02-24T21:25:13.258Z,18.20
2019-02-24T21:27:41.772Z,16.90
2019-02-24T21:30:13.531Z,16.67
2019-02-24T21:32:42.233Z,18.77
2019-02-24T21:35:11.493Z,17.00
2019-02-24T21:37:40.077Z,17.50
2019-02-24T21:40:13.849Z,15.20
2019-02-24T21:42:42.441Z,16.60
2019-02-24T21:45:16.584Z,19.73
2019-02-24T21:47:45.159Z,17.57
2019-02-24T21:50:15.730Z,22.37
2019-02-24T21:52:44.311Z,21.40
2019-02-24T21:55:13.410Z,21.43
2019-02-24T21:57:41.986Z,16.97
2019-02-24T22:00:18.947Z,18.77
2019-02-24T22:02:47.600Z,15.80
2019-02-24T22:05:16.252Z,19.03
2019-02-24T22:07:45.073Z,18.17
2019-02-24T22:10:14.830Z,27.20
2019-02-24T22:12:43.632Z,26.23
2019-02-24T22:15:15.267Z,21.83
2019-02-24T22:17:44.132Z,26.40
2019-02-24T22:20:14.508Z,16.93
2019-02-24T22:22:43.081Z,19.33
2019-02-24T22:25:13.378Z,16.53
2019-02-24T22:27:42.033Z,29.80
2019-02-24T22:30:13.321Z,23.67
2019-02-24T22:32:41.887Z,22.27
2019-02-24T22:35:10.980Z,16.13
2019-02-24T22:37:39.559Z,15.80
2019-02-24T22:40:12.815Z,16.70
2019-02-24T22:42:41.469Z,15.70
2019-02-24T22:45:18.044Z,18.23
2019-02-24T22:47:46.622Z,12.43
2019-02-24T22:50:16.128Z,18.83
2019-02-24T22:52:45.457Z,16.83
2019-02-24T22:55:18.613Z,17.87
2019-02-24T22:57:47.224Z,22.23
2019-02-24T23:00:31.780Z,15.07
2019-02-24T23:03:00.451Z,15.63
2019-02-24T23:05:29.144Z,17.13
2019-02-24T23:07:57.721Z,19.47
2019-02-24T23:10:26.373Z,21.70
2019-02-24T23:12:55.019Z,22.17
2019-02-24T23:15:23.644Z,17.77
2019-02-24T23:17:52.228Z,20.20
2019-02-24T23:20:20.795Z,19.70
2019-02-24T23:22:49.371Z,17.07
2019-02-24T23:25:17.935Z,15.80
2019-02-24T23:27:46.521Z,18.67
2019-02-24T23:30:15.153Z,15.37
2019-02-24T23:32:43.875Z,14.83
2019-02-24T23:35:12.522Z,15.40
2019-02-24T23:37:41.112Z,18.27
2019-02-24T23:40:09.846Z,21.97
2019-02-24T23:42:38.380Z,14.37
2019-02-24T23:45:13.371Z,23.10
2019-02-24T23:47:41.991Z,31.53
2019-02-24T23:50:12.015Z,32.53
2019-02-24T23:52:40.647Z,25.50
2019-02-24T23:55:10.568Z,28.33
2019-02-24T23:57:39.123Z,22.30
